sensor_id;sensor_type;location;lat;lon;timestamp;temperature;humidity
70867;HTU21D;58487;53.474;49.470;2023-04-25T00:00:14;14.51;73.01
70867;HTU21D;58487;53.474;49.470;2023-04-25T00:02:40;14.54;72.41
70867;HTU21D;58487;53.474;49.470;2023-04-25T00:05:07;14.58;72.11
70867;HTU21D;58487;53.474;49.470;2023-04-25T00:07:34;14.57;72.10
70867;HTU21D;58487;53.474;49.470;2023-04-25T00:10:00;14.41;72.16
70867;HTU21D;58487;53.474;49.470;2023-04-25T00:12:26;14.47;72.42
70867;HTU21D;58487;53.474;49.470;2023-04-25T00:14:54;14.23;72.49
70867;HTU21D;58487;53.474;49.470;2023-04-25T00:17:23;14.27;73.41
70867;HTU21D;58487;53.474;49.470;2023-04-25T00:19:52;14.34;72.80
70867;HTU21D;58487;53.474;49.470;2023-04-25T00:22:18;14.36;73.09
70867;HTU21D;58487;53.474;49.470;2023-04-25T00:24:44;14.36;73.06
70867;HTU21D;58487;53.474;49.470;2023-04-25T00:27:10;14.47;72.77
70867;HTU21D;58487;53.474;49.470;2023-04-25T00:29:36;14.50;72.51
70867;HTU21D;58487;53.474;49.470;2023-04-25T00:32:03;14.52;72.58
70867;HTU21D;58487;53.474;49.470;2023-04-25T00:34:29;14.58;71.77
70867;HTU21D;58487;53.474;49.470;2023-04-25T00:36:55;14.67;71.59
70867;HTU21D;58487;53.474;49.470;2023-04-25T00:39:21;14.67;70.91
70867;HTU21D;58487;53.474;49.470;2023-04-25T00:41:47;14.68;73.94
70867;HTU21D;58487;53.474;49.470;2023-04-25T00:44:15;14.70;72.96
70867;HTU21D;58487;53.474;49.470;2023-04-25T00:46:43;14.73;72.36
70867;HTU21D;58487;53.474;49.470;2023-04-25T00:49:12;14.78;73.15
70867;HTU21D;58487;53.474;49.470;2023-04-25T00:51:41;14.81;73.77
70867;HTU21D;58487;53.474;49.470;2023-04-25T00:54:07;14.82;73.26
70867;HTU21D;58487;53.474;49.470;2023-04-25T00:56:34;14.85;73.15
70867;HTU21D;58487;53.474;49.470;2023-04-25T00:59:00;14.89;72.73
70867;HTU21D;58487;53.474;49.470;2023-04-25T01:01:26;14.87;72.44
70867;HTU21D;58487;53.474;49.470;2023-04-25T01:03:53;14.88;72.31
70867;HTU21D;58487;53.474;49.470;2023-04-25T01:06:20;14.89;72.16
70867;HTU21D;58487;53.474;49.470;2023-04-25T01:08:46;14.74;73.21
70867;HTU21D;58487;53.474;49.470;2023-04-25T01:11:12;14.74;73.11
70867;HTU21D;58487;53.474;49.470;2023-04-25T01:13:38;14.73;72.58
70867;HTU21D;58487;53.474;49.470;2023-04-25T01:16:05;14.65;72.96
70867;HTU21D;58487;53.474;49.470;2023-04-25T01:18:31;14.64;72.83
70867;HTU21D;58487;53.474;49.470;2023-04-25T01:21:07;14.55;73.06
70867;HTU21D;58487;53.474;49.470;2023-04-25T01:23:34;14.60;72.51
70867;HTU21D;58487;53.474;49.470;2023-04-25T01:26:01;14.60;72.10
70867;HTU21D;58487;53.474;49.470;2023-04-25T01:28:28;14.67;71.79
70867;HTU21D;58487;53.474;49.470;2023-04-25T01:30:54;14.69;73.25
70867;HTU21D;58487;53.474;49.470;2023-04-25T01:33:22;14.78;72.46
70867;HTU21D;58487;53.474;49.470;2023-04-25T01:35:48;14.87;72.60
70867;HTU21D;58487;53.474;49.470;2023-04-25T01:38:14;14.86;71.06
70867;HTU21D;58487;53.474;49.470;2023-04-25T01:40:41;14.91;71.66
70867;HTU21D;58487;53.474;49.470;2023-04-25T01:43:08;14.92;73.08
70867;HTU21D;58487;53.474;49.470;2023-04-25T01:45:37;14.94;73.27
70867;HTU21D;58487;53.474;49.470;2023-04-25T01:48:12;14.94;72.37
70867;HTU21D;58487;53.474;49.470;2023-04-25T01:50:39;14.92;72.36
70867;HTU21D;58487;53.474;49.470;2023-04-25T01:53:06;14.96;71.35
70867;HTU21D;58487;53.474;49.470;2023-04-25T01:55:32;14.92;71.84
70867;HTU21D;58487;53.474;49.470;2023-04-25T01:57:58;14.86;72.27
70867;HTU21D;58487;53.474;49.470;2023-04-25T02:00:25;14.91;72.78
70867;HTU21D;58487;53.474;49.470;2023-04-25T02:02:51;14.87;73.34
70867;HTU21D;58487;53.474;49.470;2023-04-25T02:05:19;14.91;72.57
70867;HTU21D;58487;53.474;49.470;2023-04-25T02:07:47;14.91;72.56
70867;HTU21D;58487;53.474;49.470;2023-04-25T02:10:13;14.93;73.64
70867;HTU21D;58487;53.474;49.470;2023-04-25T02:12:39;14.91;73.16
70867;HTU21D;58487;53.474;49.470;2023-04-25T02:15:06;14.83;73.73
70867;HTU21D;58487;53.474;49.470;2023-04-25T02:17:32;14.68;74.02
70867;HTU21D;58487;53.474;49.470;2023-04-25T02:19:58;14.69;75.00
70867;HTU21D;58487;53.474;49.470;2023-04-25T02:22:24;14.71;74.81
70867;HTU21D;58487;53.474;49.470;2023-04-25T02:24:50;14.66;74.64
70867;HTU21D;58487;53.474;49.470;2023-04-25T02:27:16;14.70;73.86
70867;HTU21D;58487;53.474;49.470;2023-04-25T02:29:42;14.74;73.24
70867;HTU21D;58487;53.474;49.470;2023-04-25T02:32:08;14.72;73.22
70867;HTU21D;58487;53.474;49.470;2023-04-25T02:34:35;14.67;74.04
70867;HTU21D;58487;53.474;49.470;2023-04-25T02:37:01;14.64;73.98
70867;HTU21D;58487;53.474;49.470;2023-04-25T02:39:27;14.47;75.23
70867;HTU21D;58487;53.474;49.470;2023-04-25T02:41:53;14.55;75.07
70867;HTU21D;58487;53.474;49.470;2023-04-25T02:44:19;14.54;75.71
70867;HTU21D;58487;53.474;49.470;2023-04-25T02:46:45;14.62;74.04
70867;HTU21D;58487;53.474;49.470;2023-04-25T02:49:11;14.67;76.22
70867;HTU21D;58487;53.474;49.470;2023-04-25T02:51:37;14.66;74.38
70867;HTU21D;58487;53.474;49.470;2023-04-25T02:54:03;14.62;76.53
70867;HTU21D;58487;53.474;49.470;2023-04-25T02:56:30;14.58;75.36
70867;HTU21D;58487;53.474;49.470;2023-04-25T02:58:56;14.56;75.67
70867;HTU21D;58487;53.474;49.470;2023-04-25T03:01:22;14.52;77.37
70867;HTU21D;58487;53.474;49.470;2023-04-25T03:03:48;14.43;76.61
70867;HTU21D;58487;53.474;49.470;2023-04-25T03:06:14;14.39;76.18
70867;HTU21D;58487;53.474;49.470;2023-04-25T03:08:41;14.22;76.71
70867;HTU21D;58487;53.474;49.470;2023-04-25T03:11:07;14.12;77.00
70867;HTU21D;58487;53.474;49.470;2023-04-25T03:13:33;13.84;76.57
70867;HTU21D;58487;53.474;49.470;2023-04-25T03:15:59;13.58;77.73
70867;HTU21D;58487;53.474;49.470;2023-04-25T03:18:25;13.60;77.18
70867;HTU21D;58487;53.474;49.470;2023-04-25T03:20:52;13.65;78.72
70867;HTU21D;58487;53.474;49.470;2023-04-25T03:23:18;13.66;78.36
70867;HTU21D;58487;53.474;49.470;2023-04-25T03:25:44;13.60;78.33
70867;HTU21D;58487;53.474;49.470;2023-04-25T03:28:10;13.66;78.11
70867;HTU21D;58487;53.474;49.470;2023-04-25T03:30:36;13.61;79.01
70867;HTU21D;58487;53.474;49.470;2023-04-25T03:33:02;13.68;79.69
70867;HTU21D;58487;53.474;49.470;2023-04-25T03:35:28;13.83;79.74
70867;HTU21D;58487;53.474;49.470;2023-04-25T03:37:54;13.90;78.24
70867;HTU21D;58487;53.474;49.470;2023-04-25T03:40:20;13.85;78.29
70867;HTU21D;58487;53.474;49.470;2023-04-25T03:42:47;13.80;77.33
70867;HTU21D;58487;53.474;49.470;2023-04-25T03:45:13;13.79;78.43
70867;HTU21D;58487;53.474;49.470;2023-04-25T03:47:39;13.85;81.98
70867;HTU21D;58487;53.474;49.470;2023-04-25T03:50:05;13.93;80.13
70867;HTU21D;58487;53.474;49.470;2023-04-25T03:52:32;13.90;79.37
70867;HTU21D;58487;53.474;49.470;2023-04-25T03:54:58;13.78;79.81
70867;HTU21D;58487;53.474;49.470;2023-04-25T03:57:24;13.66;80.96
70867;HTU21D;58487;53.474;49.470;2023-04-25T03:59:50;13.63;84.64
70867;HTU21D;58487;53.474;49.470;2023-04-25T04:02:17;13.65;80.68
70867;HTU21D;58487;53.474;49.470;2023-04-25T04:04:44;13.90;81.10
70867;HTU21D;58487;53.474;49.470;2023-04-25T04:07:10;14.05;81.24
70867;HTU21D;58487;53.474;49.470;2023-04-25T04:09:36;14.08;81.43
70867;HTU21D;58487;53.474;49.470;2023-04-25T04:12:02;14.13;81.28
70867;HTU21D;58487;53.474;49.470;2023-04-25T04:14:29;14.17;80.52
70867;HTU21D;58487;53.474;49.470;2023-04-25T04:16:55;14.29;80.60
70867;HTU21D;58487;53.474;49.470;2023-04-25T04:19:21;14.23;82.27
70867;HTU21D;58487;53.474;49.470;2023-04-25T04:21:47;14.21;80.82
70867;HTU21D;58487;53.474;49.470;2023-04-25T04:24:14;14.22;80.35
70867;HTU21D;58487;53.474;49.470;2023-04-25T04:26:42;14.21;80.62
70867;HTU21D;58487;53.474;49.470;2023-04-25T04:29:11;14.19;81.93
70867;HTU21D;58487;53.474;49.470;2023-04-25T04:31:37;14.21;82.65
70867;HTU21D;58487;53.474;49.470;2023-04-25T04:34:03;14.30;82.42
70867;HTU21D;58487;53.474;49.470;2023-04-25T04:36:30;14.24;81.35
70867;HTU21D;58487;53.474;49.470;2023-04-25T04:38:56;14.23;80.52
70867;HTU21D;58487;53.474;49.470;2023-04-25T04:41:23;14.39;80.58
70867;HTU21D;58487;53.474;49.470;2023-04-25T04:43:49;14.32;80.73
70867;HTU21D;58487;53.474;49.470;2023-04-25T04:46:15;14.25;80.34
70867;HTU21D;58487;53.474;49.470;2023-04-25T04:48:42;14.22;80.30
70867;HTU21D;58487;53.474;49.470;2023-04-25T04:51:10;14.23;83.04
70867;HTU21D;58487;53.474;49.470;2023-04-25T04:53:36;14.39;81.27
70867;HTU21D;58487;53.474;49.470;2023-04-25T04:56:02;14.49;81.45
70867;HTU21D;58487;53.474;49.470;2023-04-25T04:58:28;14.52;80.85
70867;HTU21D;58487;53.474;49.470;2023-04-25T05:00:55;14.68;80.60
70867;HTU21D;58487;53.474;49.470;2023-04-25T05:03:21;14.44;81.30
70867;HTU21D;58487;53.474;49.470;2023-04-25T05:05:47;14.00;82.03
70867;HTU21D;58487;53.474;49.470;2023-04-25T05:08:13;13.98;80.98
70867;HTU21D;58487;53.474;49.470;2023-04-25T05:10:40;14.01;82.97
70867;HTU21D;58487;53.474;49.470;2023-04-25T05:13:06;14.08;80.94
70867;HTU21D;58487;53.474;49.470;2023-04-25T05:15:32;14.38;80.78
70867;HTU21D;58487;53.474;49.470;2023-04-25T05:17:58;14.55;80.38
70867;HTU21D;58487;53.474;49.470;2023-04-25T05:20:24;14.67;79.33
70867;HTU21D;58487;53.474;49.470;2023-04-25T05:22:50;14.71;78.85
70867;HTU21D;58487;53.474;49.470;2023-04-25T05:25:16;14.79;78.85
70867;HTU21D;58487;53.474;49.470;2023-04-25T05:27:42;14.89;78.04
70867;HTU21D;58487;53.474;49.470;2023-04-25T05:30:08;14.98;78.18
70867;HTU21D;58487;53.474;49.470;2023-04-25T05:32:35;15.12;77.89
70867;HTU21D;58487;53.474;49.470;2023-04-25T05:35:01;15.30;79.37
70867;HTU21D;58487;53.474;49.470;2023-04-25T05:37:28;15.38;77.40
70867;HTU21D;58487;53.474;49.470;2023-04-25T05:39:56;15.61;77.48
70867;HTU21D;58487;53.474;49.470;2023-04-25T05:42:22;15.68;78.59
70867;HTU21D;58487;53.474;49.470;2023-04-25T05:44:48;15.58;78.37
70867;HTU21D;58487;53.474;49.470;2023-04-25T05:47:14;15.42;79.87
70867;HTU21D;58487;53.474;49.470;2023-04-25T05:49:41;15.57;79.73
70867;HTU21D;58487;53.474;49.470;2023-04-25T05:52:07;15.42;80.81
70867;HTU21D;58487;53.474;49.470;2023-04-25T05:54:33;15.55;79.25
70867;HTU21D;58487;53.474;49.470;2023-04-25T05:56:59;15.73;78.77
70867;HTU21D;58487;53.474;49.470;2023-04-25T05:59:25;15.93;79.04
70867;HTU21D;58487;53.474;49.470;2023-04-25T06:01:51;16.02;77.51
70867;HTU21D;58487;53.474;49.470;2023-04-25T06:04:17;16.13;78.20
70867;HTU21D;58487;53.474;49.470;2023-04-25T06:06:43;16.20;76.96
70867;HTU21D;58487;53.474;49.470;2023-04-25T06:09:09;16.30;76.12
70867;HTU21D;58487;53.474;49.470;2023-04-25T06:11:35;16.33;75.93
70867;HTU21D;58487;53.474;49.470;2023-04-25T06:14:01;16.26;77.88
70867;HTU21D;58487;53.474;49.470;2023-04-25T06:16:27;16.28;77.74
70867;HTU21D;58487;53.474;49.470;2023-04-25T06:18:53;16.49;77.21
70867;HTU21D;58487;53.474;49.470;2023-04-25T06:21:19;16.50;77.44
70867;HTU21D;58487;53.474;49.470;2023-04-25T06:23:45;16.47;76.39
70867;HTU21D;58487;53.474;49.470;2023-04-25T06:26:12;16.37;76.91
70867;HTU21D;58487;53.474;49.470;2023-04-25T06:28:38;16.28;76.47
70867;HTU21D;58487;53.474;49.470;2023-04-25T06:31:04;16.28;77.46
70867;HTU21D;58487;53.474;49.470;2023-04-25T06:33:30;16.44;77.31
70867;HTU21D;58487;53.474;49.470;2023-04-25T06:35:56;16.49;77.92
70867;HTU21D;58487;53.474;49.470;2023-04-25T06:38:22;16.50;76.47
70867;HTU21D;58487;53.474;49.470;2023-04-25T06:40:48;16.56;78.24
70867;HTU21D;58487;53.474;49.470;2023-04-25T06:43:14;16.62;77.21
70867;HTU21D;58487;53.474;49.470;2023-04-25T06:45:40;16.63;77.16
70867;HTU21D;58487;53.474;49.470;2023-04-25T06:48:06;16.67;77.09
70867;HTU21D;58487;53.474;49.470;2023-04-25T06:50:33;16.72;76.85
70867;HTU21D;58487;53.474;49.470;2023-04-25T06:52:59;16.74;79.40
70867;HTU21D;58487;53.474;49.470;2023-04-25T06:55:27;16.84;76.67
70867;HTU21D;58487;53.474;49.470;2023-04-25T06:57:53;16.74;77.14
70867;HTU21D;58487;53.474;49.470;2023-04-25T07:00:19;16.67;76.92
70867;HTU21D;58487;53.474;49.470;2023-04-25T07:02:45;16.75;76.32
70867;HTU21D;58487;53.474;49.470;2023-04-25T07:05:12;16.61;75.57
70867;HTU21D;58487;53.474;49.470;2023-04-25T07:07:38;16.93;76.95
70867;HTU21D;58487;53.474;49.470;2023-04-25T07:10:04;16.94;77.42
70867;HTU21D;58487;53.474;49.470;2023-04-25T07:12:31;17.15;76.95
70867;HTU21D;58487;53.474;49.470;2023-04-25T07:14:57;17.25;76.31
70867;HTU21D;58487;53.474;49.470;2023-04-25T07:17:23;17.29;75.70
70867;HTU21D;58487;53.474;49.470;2023-04-25T07:19:49;17.41;77.09
70867;HTU21D;58487;53.474;49.470;2023-04-25T07:22:15;17.44;76.31
70867;HTU21D;58487;53.474;49.470;2023-04-25T07:24:41;17.49;75.99
70867;HTU21D;58487;53.474;49.470;2023-04-25T07:27:07;17.38;75.92
70867;HTU21D;58487;53.474;49.470;2023-04-25T07:29:33;17.51;75.06
70867;HTU21D;58487;53.474;49.470;2023-04-25T07:32:02;17.22;75.16
70867;HTU21D;58487;53.474;49.470;2023-04-25T07:34:29;17.30;75.57
70867;HTU21D;58487;53.474;49.470;2023-04-25T07:36:56;17.36;75.58
70867;HTU21D;58487;53.474;49.470;2023-04-25T07:39:22;17.46;76.32
70867;HTU21D;58487;53.474;49.470;2023-04-25T07:41:48;17.55;75.31
70867;HTU21D;58487;53.474;49.470;2023-04-25T07:44:14;17.58;75.76
70867;HTU21D;58487;53.474;49.470;2023-04-25T07:46:41;17.55;75.84
70867;HTU21D;58487;53.474;49.470;2023-04-25T07:49:07;17.54;74.82
70867;HTU21D;58487;53.474;49.470;2023-04-25T07:51:33;17.53;75.17
70867;HTU21D;58487;53.474;49.470;2023-04-25T07:53:59;17.49;75.95
70867;HTU21D;58487;53.474;49.470;2023-04-25T07:56:26;17.59;75.20
70867;HTU21D;58487;53.474;49.470;2023-04-25T07:58:52;17.59;75.41
70867;HTU21D;58487;53.474;49.470;2023-04-25T08:01:19;17.64;75.12
70867;HTU21D;58487;53.474;49.470;2023-04-25T08:03:47;17.72;74.08
70867;HTU21D;58487;53.474;49.470;2023-04-25T08:06:13;17.59;75.01
70867;HTU21D;58487;53.474;49.470;2023-04-25T08:08:39;17.61;75.24
70867;HTU21D;58487;53.474;49.470;2023-04-25T08:11:06;17.74;75.07
70867;HTU21D;58487;53.474;49.470;2023-04-25T08:13:32;17.79;74.12
70867;HTU21D;58487;53.474;49.470;2023-04-25T08:15:59;17.90;74.02
70867;HTU21D;58487;53.474;49.470;2023-04-25T08:18:25;17.97;73.15
70867;HTU21D;58487;53.474;49.470;2023-04-25T08:20:51;18.10;72.78
70867;HTU21D;58487;53.474;49.470;2023-04-25T08:23:17;18.15;72.45
70867;HTU21D;58487;53.474;49.470;2023-04-25T08:25:43;18.23;73.11
70867;HTU21D;58487;53.474;49.470;2023-04-25T08:28:10;18.11;72.83
70867;HTU21D;58487;53.474;49.470;2023-04-25T08:30:36;18.07;72.87
70867;HTU21D;58487;53.474;49.470;2023-04-25T08:33:02;18.09;73.18
70867;HTU21D;58487;53.474;49.470;2023-04-25T08:35:28;18.02;72.60
70867;HTU21D;58487;53.474;49.470;2023-04-25T08:37:55;17.92;73.93
70867;HTU21D;58487;53.474;49.470;2023-04-25T08:40:22;17.83;75.09
70867;HTU21D;58487;53.474;49.470;2023-04-25T08:42:57;17.67;74.36
70867;HTU21D;58487;53.474;49.470;2023-04-25T08:45:23;17.73;75.91
70867;HTU21D;58487;53.474;49.470;2023-04-25T08:47:51;17.81;75.89
70867;HTU21D;58487;53.474;49.470;2023-04-25T08:50:18;17.87;75.71
70867;HTU21D;58487;53.474;49.470;2023-04-25T08:52:50;17.79;76.89
70867;HTU21D;58487;53.474;49.470;2023-04-25T08:55:18;17.66;76.75
70867;HTU21D;58487;53.474;49.470;2023-04-25T08:57:44;17.67;77.33
70867;HTU21D;58487;53.474;49.470;2023-04-25T09:00:12;17.82;77.48
70867;HTU21D;58487;53.474;49.470;2023-04-25T09:02:42;17.94;77.05
70867;HTU21D;58487;53.474;49.470;2023-04-25T09:05:09;17.94;75.91
70867;HTU21D;58487;53.474;49.470;2023-04-25T09:07:38;17.96;75.73
70867;HTU21D;58487;53.474;49.470;2023-04-25T09:10:07;18.09;77.92
70867;HTU21D;58487;53.474;49.470;2023-04-25T09:12:35;17.97;76.07
70867;HTU21D;58487;53.474;49.470;2023-04-25T09:15:12;18.14;74.94
70867;HTU21D;58487;53.474;49.470;2023-04-25T09:17:41;18.34;75.22
70867;HTU21D;58487;53.474;49.470;2023-04-25T09:20:12;18.29;76.37
70867;HTU21D;58487;53.474;49.470;2023-04-25T09:22:39;18.33;74.71
70867;HTU21D;58487;53.474;49.470;2023-04-25T09:25:12;18.24;78.89
70867;HTU21D;58487;53.474;49.470;2023-04-25T09:27:49;18.20;73.84
70867;HTU21D;58487;53.474;49.470;2023-04-25T09:30:17;17.92;76.05
70867;HTU21D;58487;53.474;49.470;2023-04-25T09:32:43;18.05;75.33
70867;HTU21D;58487;53.474;49.470;2023-04-25T09:35:10;18.12;74.42
70867;HTU21D;58487;53.474;49.470;2023-04-25T09:37:37;18.26;75.15
70867;HTU21D;58487;53.474;49.470;2023-04-25T09:40:06;18.25;75.31
70867;HTU21D;58487;53.474;49.470;2023-04-25T09:42:33;18.17;74.89
70867;HTU21D;58487;53.474;49.470;2023-04-25T09:45:01;17.98;74.34
70867;HTU21D;58487;53.474;49.470;2023-04-25T09:47:28;17.69;73.41
70867;HTU21D;58487;53.474;49.470;2023-04-25T09:49:54;17.59;74.45
70867;HTU21D;58487;53.474;49.470;2023-04-25T09:52:22;17.41;74.88
70867;HTU21D;58487;53.474;49.470;2023-04-25T09:54:50;17.20;74.10
70867;HTU21D;58487;53.474;49.470;2023-04-25T09:57:18;17.11;73.93
70867;HTU21D;58487;53.474;49.470;2023-04-25T09:59:55;17.14;75.75
70867;HTU21D;58487;53.474;49.470;2023-04-25T10:02:23;16.75;75.16
70867;HTU21D;58487;53.474;49.470;2023-04-25T10:04:51;16.45;77.16
70867;HTU21D;58487;53.474;49.470;2023-04-25T10:07:19;16.31;77.00
70867;HTU21D;58487;53.474;49.470;2023-04-25T10:09:52;16.43;78.31
70867;HTU21D;58487;53.474;49.470;2023-04-25T10:12:21;16.56;77.09
70867;HTU21D;58487;53.474;49.470;2023-04-25T10:14:48;16.44;77.18
70867;HTU21D;58487;53.474;49.470;2023-04-25T10:17:14;16.14;78.27
70867;HTU21D;58487;53.474;49.470;2023-04-25T10:19:41;15.84;79.51
70867;HTU21D;58487;53.474;49.470;2023-04-25T10:22:13;15.84;81.08
70867;HTU21D;58487;53.474;49.470;2023-04-25T10:24:41;15.84;80.33
70867;HTU21D;58487;53.474;49.470;2023-04-25T10:27:07;15.85;80.46
70867;HTU21D;58487;53.474;49.470;2023-04-25T10:29:35;15.83;81.75
70867;HTU21D;58487;53.474;49.470;2023-04-25T10:32:02;15.73;81.06
70867;HTU21D;58487;53.474;49.470;2023-04-25T10:34:42;15.70;81.97
70867;HTU21D;58487;53.474;49.470;2023-04-25T10:37:10;15.83;82.26
70867;HTU21D;58487;53.474;49.470;2023-04-25T10:39:39;15.81;82.47
70867;HTU21D;58487;53.474;49.470;2023-04-25T10:42:07;15.61;83.74
70867;HTU21D;58487;53.474;49.470;2023-04-25T10:44:37;15.59;85.43
70867;HTU21D;58487;53.474;49.470;2023-04-25T10:47:07;15.77;81.87
70867;HTU21D;58487;53.474;49.470;2023-04-25T10:49:37;15.97;84.03
70867;HTU21D;58487;53.474;49.470;2023-04-25T10:54:56;16.32;83.48
70867;HTU21D;58487;53.474;49.470;2023-04-25T10:57:42;16.45;82.86
70867;HTU21D;58487;53.474;49.470;2023-04-25T11:00:16;16.56;80.68
70867;HTU21D;58487;53.474;49.470;2023-04-25T11:02:48;16.64;80.45
70867;HTU21D;58487;53.474;49.470;2023-04-25T11:05:32;16.47;80.64
70867;HTU21D;58487;53.474;49.470;2023-04-25T11:07:59;16.32;81.69
70867;HTU21D;58487;53.474;49.470;2023-04-25T11:10:30;16.33;81.81
70867;HTU21D;58487;53.474;49.470;2023-04-25T11:12:57;16.44;82.05
70867;HTU21D;58487;53.474;49.470;2023-04-25T11:15:25;16.33;82.69
70867;HTU21D;58487;53.474;49.470;2023-04-25T11:17:52;16.39;83.36
70867;HTU21D;58487;53.474;49.470;2023-04-25T11:20:19;16.52;82.86
70867;HTU21D;58487;53.474;49.470;2023-04-25T11:22:46;16.59;82.86
70867;HTU21D;58487;53.474;49.470;2023-04-25T11:25:14;16.67;81.84
70867;HTU21D;58487;53.474;49.470;2023-04-25T11:27:57;16.56;81.54
70867;HTU21D;58487;53.474;49.470;2023-04-25T11:30:25;16.64;82.82
70867;HTU21D;58487;53.474;49.470;2023-04-25T11:32:52;16.71;82.88
70867;HTU21D;58487;53.474;49.470;2023-04-25T11:35:19;16.63;83.72
70867;HTU21D;58487;53.474;49.470;2023-04-25T11:37:46;16.71;82.42
70867;HTU21D;58487;53.474;49.470;2023-04-25T11:40:13;16.75;83.98
70867;HTU21D;58487;53.474;49.470;2023-04-25T11:42:43;16.71;83.22
70867;HTU21D;58487;53.474;49.470;2023-04-25T11:45:09;16.73;85.19
70867;HTU21D;58487;53.474;49.470;2023-04-25T11:47:36;16.77;84.98
70867;HTU21D;58487;53.474;49.470;2023-04-25T11:50:04;16.78;85.32
70867;HTU21D;58487;53.474;49.470;2023-04-25T11:55:13;16.60;84.96
70867;HTU21D;58487;53.474;49.470;2023-04-25T11:57:40;16.50;83.92
70867;HTU21D;58487;53.474;49.470;2023-04-25T12:02:44;16.45;83.71
70867;HTU21D;58487;53.474;49.470;2023-04-25T12:05:12;16.41;86.29
70867;HTU21D;58487;53.474;49.470;2023-04-25T12:07:38;16.32;86.63
70867;HTU21D;58487;53.474;49.470;2023-04-25T12:10:06;16.32;86.45
70867;HTU21D;58487;53.474;49.470;2023-04-25T12:12:34;16.18;86.59
70867;HTU21D;58487;53.474;49.470;2023-04-25T12:15:13;16.00;90.64
70867;HTU21D;58487;53.474;49.470;2023-04-25T12:17:46;15.96;87.17
70867;HTU21D;58487;53.474;49.470;2023-04-25T12:20:17;15.95;89.71
70867;HTU21D;58487;53.474;49.470;2023-04-25T12:22:46;15.97;87.31
70867;HTU21D;58487;53.474;49.470;2023-04-25T12:25:33;15.95;86.02
70867;HTU21D;58487;53.474;49.470;2023-04-25T12:28:21;15.91;89.23
70867;HTU21D;58487;53.474;49.470;2023-04-25T12:30:56;15.84;89.87
70867;HTU21D;58487;53.474;49.470;2023-04-25T12:33:24;15.84;87.44
70867;HTU21D;58487;53.474;49.470;2023-04-25T12:35:50;15.84;87.18
70867;HTU21D;58487;53.474;49.470;2023-04-25T12:38:30;15.87;88.15
70867;HTU21D;58487;53.474;49.470;2023-04-25T12:40:58;15.83;90.31
70867;HTU21D;58487;53.474;49.470;2023-04-25T12:43:24;15.80;89.63
70867;HTU21D;58487;53.474;49.470;2023-04-25T12:45:52;15.74;90.78
70867;HTU21D;58487;53.474;49.470;2023-04-25T12:48:19;15.66;90.64
70867;HTU21D;58487;53.474;49.470;2023-04-25T12:50:46;15.66;90.03
70867;HTU21D;58487;53.474;49.470;2023-04-25T12:53:19;15.61;94.92
70867;HTU21D;58487;53.474;49.470;2023-04-25T12:55:46;15.56;93.96
70867;HTU21D;58487;53.474;49.470;2023-04-25T12:58:17;15.57;96.89
70867;HTU21D;58487;53.474;49.470;2023-04-25T13:00:44;15.47;96.85
70867;HTU21D;58487;53.474;49.470;2023-04-25T13:03:10;15.46;98.37
70867;HTU21D;58487;53.474;49.470;2023-04-25T13:05:38;15.32;99.47
70867;HTU21D;58487;53.474;49.470;2023-04-25T13:08:04;15.28;98.92
70867;HTU21D;58487;53.474;49.470;2023-04-25T13:10:31;15.23;103.55
70867;HTU21D;58487;53.474;49.470;2023-04-25T13:12:59;15.10;101.59
70867;HTU21D;58487;53.474;49.470;2023-04-25T13:15:26;15.15;102.33
70867;HTU21D;58487;53.474;49.470;2023-04-25T13:17:52;15.16;97.78
70867;HTU21D;58487;53.474;49.470;2023-04-25T13:20:19;15.19;95.91
70867;HTU21D;58487;53.474;49.470;2023-04-25T13:22:48;15.14;97.98
70867;HTU21D;58487;53.474;49.470;2023-04-25T13:25:14;15.09;97.65
70867;HTU21D;58487;53.474;49.470;2023-04-25T13:27:41;15.08;93.98
70867;HTU21D;58487;53.474;49.470;2023-04-25T13:30:07;15.11;94.96
70867;HTU21D;58487;53.474;49.470;2023-04-25T13:32:34;15.12;97.94
70867;HTU21D;58487;53.474;49.470;2023-04-25T13:35:03;15.13;98.76
70867;HTU21D;58487;53.474;49.470;2023-04-25T13:37:29;15.17;97.38
70867;HTU21D;58487;53.474;49.470;2023-04-25T13:39:56;15.10;100.48
70867;HTU21D;58487;53.474;49.470;2023-04-25T13:42:23;15.15;102.54
70867;HTU21D;58487;53.474;49.470;2023-04-25T13:44:50;14.75;100.16
70867;HTU21D;58487;53.474;49.470;2023-04-25T13:47:16;14.22;97.85
70867;HTU21D;58487;53.474;49.470;2023-04-25T13:49:43;13.90;100.02
70867;HTU21D;58487;53.474;49.470;2023-04-25T13:52:09;13.93;100.40
70867;HTU21D;58487;53.474;49.470;2023-04-25T13:54:35;14.00;106.52
70867;HTU21D;58487;53.474;49.470;2023-04-25T13:57:01;13.97;102.43
70867;HTU21D;58487;53.474;49.470;2023-04-25T13:59:28;13.92;106.50
70867;HTU21D;58487;53.474;49.470;2023-04-25T14:01:54;14.17;102.26
70867;HTU21D;58487;53.474;49.470;2023-04-25T14:04:20;14.20;105.12
70867;HTU21D;58487;53.474;49.470;2023-04-25T14:06:46;14.21;102.06
70867;HTU21D;58487;53.474;49.470;2023-04-25T14:09:13;14.05;102.31
70867;HTU21D;58487;53.474;49.470;2023-04-25T14:11:39;13.79;105.08
70867;HTU21D;58487;53.474;49.470;2023-04-25T14:14:05;13.80;103.06
70867;HTU21D;58487;53.474;49.470;2023-04-25T14:16:31;13.80;106.47
70867;HTU21D;58487;53.474;49.470;2023-04-25T14:18:58;13.82;106.27
70867;HTU21D;58487;53.474;49.470;2023-04-25T14:21:24;13.92;107.89
70867;HTU21D;58487;53.474;49.470;2023-04-25T14:23:51;14.00;103.56
70867;HTU21D;58487;53.474;49.470;2023-04-25T14:26:17;14.01;103.73
70867;HTU21D;58487;53.474;49.470;2023-04-25T14:28:43;14.08;103.94
70867;HTU21D;58487;53.474;49.470;2023-04-25T14:31:10;14.00;111.74
70867;HTU21D;58487;53.474;49.470;2023-04-25T14:33:36;13.97;108.32
70867;HTU21D;58487;53.474;49.470;2023-04-25T14:36:05;14.01;103.79
70867;HTU21D;58487;53.474;49.470;2023-04-25T14:38:32;13.90;104.42
70867;HTU21D;58487;53.474;49.470;2023-04-25T14:40:58;13.91;104.50
70867;HTU21D;58487;53.474;49.470;2023-04-25T14:43:24;13.93;104.98
70867;HTU21D;58487;53.474;49.470;2023-04-25T14:45:51;13.94;113.19
70867;HTU21D;58487;53.474;49.470;2023-04-25T14:48:18;13.88;112.90
70867;HTU21D;58487;53.474;49.470;2023-04-25T14:50:45;13.93;109.68
70867;HTU21D;58487;53.474;49.470;2023-04-25T14:53:12;13.96;110.47
70867;HTU21D;58487;53.474;49.470;2023-04-25T14:55:38;13.97;113.31
70867;HTU21D;58487;53.474;49.470;2023-04-25T14:58:06;13.97;107.84
70867;HTU21D;58487;53.474;49.470;2023-04-25T15:00:32;13.92;118.99
70867;HTU21D;58487;53.474;49.470;2023-04-25T15:02:59;13.94;113.21
70867;HTU21D;58487;53.474;49.470;2023-04-25T15:05:25;13.91;118.99
70867;HTU21D;58487;53.474;49.470;2023-04-25T15:07:51;13.94;114.24